Time;durP1;ratioP1;P1;durP2;ratioP2;P2;SDS_P1;SDS_P2;PMS_P1;PMS_P2;Temp;Humidity;BMP_temperature;BMP_pressure;BME280_temperature;BME280_humidity;BME280_pressure;Samples;Min_cycle;Max_cycle;Signal;HPM_P1;HPM_P2
2021/04/25 00:01:07;;;;;;;6.43;1.67;;;6.40;67.10;;;;;;4964927;28;20041;-67
2021/04/25 00:03:33;;;;;;;10.20;2.03;;;6.40;67.60;;;;;;4960393;28;20496;-67
2021/04/25 00:05:59;;;;;;;8.63;1.73;;;6.30;67.40;;;;;;4960823;28;20473;-68
2021/04/25 00:08:24;;;;;;;7.43;2.28;;;6.30;67.70;;;;;;4962684;28;20026;-67
2021/04/25 00:10:50;;;;;;;6.35;1.70;;;6.30;67.60;;;;;;4959819;28;20046;-67
2021/04/25 00:13:16;;;;;;;10.05;3.40;;;6.30;68.00;;;;;;4964060;28;20032;-67
2021/04/25 00:15:41;;;;;;;8.38;2.35;;;6.30;67.80;;;;;;4960516;28;20051;-67
2021/04/25 00:18:07;;;;;;;6.38;2.28;;;6.20;67.60;;;;;;4961571;28;20045;-67
2021/04/25 00:20:33;;;;;;;12.93;2.50;;;6.30;67.80;;;;;;4962950;28;20043;-66
2021/04/25 00:22:58;;;;;;;5.22;1.80;;;6.20;68.10;;;;;;4963685;28;20433;-66
2021/04/25 00:25:24;;;;;;;6.72;1.95;;;6.20;68.20;;;;;;4963543;28;20046;-66
2021/04/25 00:27:50;;;;;;;4.32;1.70;;;6.10;68.20;;;;;;4961126;28;20031;-66
2021/04/25 00:30:19;;;;;;;5.95;2.10;;;6.10;68.00;;;;;;4964624;28;20023;-66
2021/04/25 00:32:46;;;;;;;4.70;1.52;;;6.10;68.30;;;;;;4961471;28;20027;-66
2021/04/25 00:35:12;;;;;;;7.15;2.15;;;6.10;68.00;;;;;;4962965;28;20097;-66
2021/04/25 00:37:38;;;;;;;9.20;1.70;;;6.10;67.80;;;;;;4960038;28;20469;-67
2021/04/25 00:40:09;;;;;;;8.55;2.58;;;6.10;68.30;;;;;;4963995;28;20039;-66
2021/04/25 00:42:38;;;;;;;6.43;2.00;;;6.00;68.10;;;;;;4963785;28;20023;-66
2021/04/25 00:45:15;;;;;;;5.35;1.88;;;6.00;68.30;;;;;;4965961;28;20655;-66
2021/04/25 00:47:42;;;;;;;7.13;1.90;;;6.00;68.20;;;;;;4965856;28;20031;-65
2021/04/25 00:50:09;;;;;;;7.93;2.00;;;6.00;68.50;;;;;;4977719;23;20134;-69
2021/04/25 00:52:40;;;;;;;8.73;2.45;;;5.90;68.50;;;;;;4952055;28;20469;-68
2021/04/25 00:55:06;;;;;;;5.95;2.05;;;6.00;68.60;;;;;;4953302;29;20562;-69
2021/04/25 00:57:32;;;;;;;4.80;1.90;;;5.90;68.30;;;;;;4950245;28;20032;-69
2021/04/25 01:00:05;;;;;;;5.53;1.88;;;5.90;68.20;;;;;;4951801;28;20027;-68
2021/04/25 01:02:32;;;;;;;4.78;1.67;;;5.90;68.70;;;;;;4946359;29;20038;-68
2021/04/25 01:04:58;;;;;;;6.35;1.90;;;5.80;68.50;;;;;;4946843;29;20028;-68
2021/04/25 01:07:24;;;;;;;5.90;2.00;;;5.80;68.60;;;;;;4945496;29;20041;-71
2021/04/25 01:09:49;;;;;;;5.07;2.03;;;5.80;68.80;;;;;;4944968;28;20409;-70
2021/04/25 01:12:15;;;;;;;10.98;1.92;;;5.80;68.70;;;;;;4945994;29;20095;-69
2021/04/25 01:14:41;;;;;;;6.07;2.00;;;5.70;68.60;;;;;;4946530;28;20046;-69
2021/04/25 01:17:06;;;;;;;8.45;2.58;;;5.70;68.60;;;;;;4944787;29;20044;-69
2021/04/25 01:19:32;;;;;;;5.45;1.42;;;5.70;69.20;;;;;;4944978;29;20092;-69
2021/04/25 01:21:58;;;;;;;9.40;3.25;;;5.60;69.20;;;;;;4973906;28;20040;-69
2021/04/25 01:24:24;;;;;;;5.57;1.95;;;5.60;69.40;;;;;;4943024;29;20027;-69
2021/04/25 01:26:49;;;;;;;6.20;2.20;;;5.60;69.20;;;;;;4942842;29;20043;-68
2021/04/25 01:29:15;;;;;;;7.75;1.65;;;5.60;69.30;;;;;;4944922;29;20031;-69
2021/04/25 01:31:41;;;;;;;4.95;1.80;;;5.60;69.10;;;;;;4945867;29;20039;-69
2021/04/25 01:34:07;;;;;;;7.75;1.92;;;5.60;69.10;;;;;;4943813;29;20039;-69
2021/04/25 01:36:33;;;;;;;9.95;2.00;;;5.50;69.00;;;;;;4943976;29;20433;-69
2021/04/25 01:38:59;;;;;;;7.00;2.35;;;5.60;69.50;;;;;;4945719;29;20035;-69
2021/04/25 01:41:25;;;;;;;8.20;1.48;;;5.50;69.20;;;;;;4945431;28;20136;-69
2021/04/25 01:43:51;;;;;;;13.88;3.28;;;5.50;69.30;;;;;;4944043;29;20038;-69
2021/04/25 01:46:17;;;;;;;8.40;1.70;;;5.50;69.30;;;;;;4944630;29;20035;-69
2021/04/25 01:48:43;;;;;;;7.95;2.05;;;5.50;69.30;;;;;;4945947;28;20156;-69
2021/04/25 01:51:10;;;;;;;9.43;2.20;;;5.40;69.60;;;;;;4944231;28;20117;-69
2021/04/25 01:53:36;;;;;;;6.50;1.75;;;5.40;69.90;;;;;;4943913;29;20035;-69
2021/04/25 01:56:04;;;;;;;9.48;2.50;;;5.40;69.70;;;;;;4944278;29;20035;-69
2021/04/25 01:58:30;;;;;;;5.35;1.80;;;5.30;70.10;;;;;;4942226;29;20038;-69
2021/04/25 02:00:56;;;;;;;9.13;1.83;;;5.30;70.50;;;;;;4944507;28;20031;-70
2021/04/25 02:03:24;;;;;;;8.82;2.13;;;5.20;70.40;;;;;;4944405;28;20035;-68
2021/04/25 02:05:50;;;;;;;5.80;2.25;;;5.20;70.60;;;;;;4945351;29;20042;-69
2021/04/25 02:08:16;;;;;;;6.25;2.03;;;5.20;70.40;;;;;;4945431;28;20111;-69
2021/04/25 02:10:43;;;;;;;7.30;2.00;;;5.30;70.20;;;;;;4944958;28;20061;-69
2021/04/25 02:13:09;;;;;;;7.72;1.83;;;5.30;70.10;;;;;;4944173;29;20034;-69
2021/04/25 02:15:35;;;;;;;11.25;1.92;;;5.20;70.50;;;;;;4944114;29;20031;-69
2021/04/25 02:18:01;;;;;;;10.07;2.45;;;5.20;70.50;;;;;;4944729;28;20062;-70
2021/04/25 02:20:27;;;;;;;7.15;1.85;;;5.20;70.20;;;;;;4944053;28;20066;-69
2021/04/25 02:22:53;;;;;;;7.35;1.58;;;5.30;70.20;;;;;;4943946;28;20042;-69
2021/04/25 02:25:21;;;;;;;7.25;1.73;;;5.20;70.10;;;;;;4944387;29;20046;-69
2021/04/25 02:27:47;;;;;;;6.32;1.90;;;5.20;70.00;;;;;;4943657;29;20039;-69
2021/04/25 02:30:19;;;;;;;5.47;1.35;;;5.20;70.00;;;;;;4944559;28;20031;-69
2021/04/25 02:32:47;;;;;;;10.70;1.88;;;5.20;69.80;;;;;;4943993;29;20039;-69
2021/04/25 02:35:14;;;;;;;5.05;1.77;;;5.20;70.10;;;;;;4944749;29;20047;-69
2021/04/25 02:37:41;;;;;;;6.20;1.55;;;5.20;70.10;;;;;;4943298;29;20110;-69
2021/04/25 02:40:10;;;;;;;7.97;1.55;;;5.20;70.00;;;;;;4942709;29;20077;-70
2021/04/25 02:42:36;;;;;;;4.13;1.70;;;5.20;70.00;;;;;;4942646;29;20028;-69
2021/04/25 02:45:03;;;;;;;5.35;1.30;;;5.20;69.90;;;;;;4944347;29;20389;-69
2021/04/25 02:47:29;;;;;;;6.47;1.60;;;5.10;69.90;;;;;;4939542;29;23315;-69
2021/04/25 02:49:55;;;;;;;6.43;1.55;;;5.10;70.10;;;;;;4943984;29;20031;-69
2021/04/25 02:52:25;;;;;;;5.25;1.45;;;5.10;70.30;;;;;;4942621;28;20031;-69
2021/04/25 02:54:54;;;;;;;4.90;1.45;;;5.10;70.20;;;;;;4944193;28;20398;-69
2021/04/25 02:57:21;;;;;;;8.23;1.70;;;5.10;70.50;;;;;;4942351;29;20031;-69
2021/04/25 02:59:47;;;;;;;5.45;1.50;;;5.10;70.10;;;;;;4943479;29;20043;-69
2021/04/25 03:02:12;;;;;;;11.68;1.52;;;5.10;70.30;;;;;;4940983;29;20038;-69
2021/04/25 03:04:38;;;;;;;6.85;1.70;;;5.10;70.20;;;;;;4941901;28;20445;-69
2021/04/25 03:07:04;;;;;;;8.68;1.77;;;5.10;70.40;;;;;;4940924;29;20058;-69
2021/04/25 03:09:29;;;;;;;6.38;1.30;;;5.00;70.50;;;;;;4944157;29;20066;-69
2021/04/25 03:11:55;;;;;;;8.60;2.00;;;5.00;70.50;;;;;;4943400;29;20039;-69
2021/04/25 03:14:24;;;;;;;7.80;2.47;;;5.00;70.50;;;;;;4944263;29;20032;-69
2021/04/25 03:16:49;;;;;;;7.00;1.55;;;5.00;71.10;;;;;;4941781;29;20035;-69
2021/04/25 03:19:15;;;;;;;5.03;1.65;;;5.00;70.60;;;;;;4942296;29;20036;-69
2021/04/25 03:21:41;;;;;;;5.40;1.40;;;5.00;70.40;;;;;;4937203;29;20027;-69
2021/04/25 03:24:07;;;;;;;5.25;1.55;;;5.00;70.80;;;;;;4941480;29;20490;-69
2021/04/25 03:26:32;;;;;;;7.80;2.10;;;5.00;70.70;;;;;;4942938;28;20037;-69
2021/04/25 03:28:58;;;;;;;6.13;1.85;;;5.00;70.70;;;;;;4942966;29;20102;-69
2021/04/25 03:31:24;;;;;;;6.95;1.98;;;5.00;70.80;;;;;;4942746;29;20040;-69
2021/04/25 03:33:50;;;;;;;8.65;1.67;;;5.00;70.90;;;;;;4940731;29;20036;-69
2021/04/25 03:36:19;;;;;;;5.30;1.80;;;4.90;71.00;;;;;;4942528;28;20440;-69
2021/04/25 03:38:44;;;;;;;8.05;1.63;;;4.90;71.50;;;;;;4941233;29;20114;-69
2021/04/25 03:41:10;;;;;;;5.20;1.50;;;4.90;72.00;;;;;;4940857;28;20392;-69
2021/04/25 03:43:36;;;;;;;6.90;1.65;;;4.80;71.40;;;;;;4942871;29;20111;-69
2021/04/25 03:46:02;;;;;;;5.78;1.70;;;4.80;71.50;;;;;;4942517;29;20031;-69
2021/04/25 03:48:28;;;;;;;6.32;1.73;;;4.90;71.30;;;;;;4942906;29;20035;-69
2021/04/25 03:50:54;;;;;;;6.53;2.05;;;4.80;71.40;;;;;;4941982;28;20050;-68
2021/04/25 03:53:19;;;;;;;6.90;1.35;;;4.90;71.50;;;;;;4942969;29;20031;-68
2021/04/25 03:55:45;;;;;;;5.28;1.77;;;4.80;71.60;;;;;;4941076;29;20819;-68
2021/04/25 03:58:11;;;;;;;6.63;1.90;;;4.90;71.70;;;;;;4939945;29;20032;-67
2021/04/25 04:00:37;;;;;;;6.68;1.52;;;4.80;71.80;;;;;;4942311;29;20131;-69
2021/04/25 04:03:02;;;;;;;5.30;1.60;;;4.80;71.90;;;;;;4945149;29;20051;-69
2021/04/25 04:05:28;;;;;;;5.90;1.83;;;4.80;71.90;;;;;;4943359;29;20063;-70
2021/04/25 04:07:54;;;;;;;8.60;2.63;;;4.80;71.90;;;;;;4942582;29;20053;-69
2021/04/25 04:10:20;;;;;;;11.18;1.92;;;4.80;72.30;;;;;;4941422;29;20507;-70
2021/04/25 04:12:45;;;;;;;6.95;1.70;;;4.80;72.10;;;;;;4942862;29;20031;-68
2021/04/25 04:15:12;;;;;;;9.70;1.50;;;4.80;72.40;;;;;;4938662;28;21004;-70
2021/04/25 04:17:38;;;;;;;5.65;1.58;;;4.80;72.10;;;;;;4946003;29;20090;-68
2021/04/25 04:20:05;;;;;;;10.25;2.20;;;4.70;72.10;;;;;;4945394;28;20027;-68
2021/04/25 04:22:31;;;;;;;8.45;1.75;;;4.80;72.30;;;;;;4938743;29;20126;-69
2021/04/25 04:24:57;;;;;;;4.95;1.45;;;4.80;72.60;;;;;;4946234;29;20118;-68
2021/04/25 04:27:22;;;;;;;5.40;1.67;;;4.80;72.50;;;;;;4946323;29;20569;-68
2021/04/25 04:29:48;;;;;;;8.32;1.85;;;4.80;72.60;;;;;;4947839;29;20486;-68
2021/04/25 04:32:14;;;;;;;6.95;1.98;;;4.80;72.70;;;;;;4943981;29;20058;-68
2021/04/25 04:34:39;;;;;;;6.47;2.08;;;4.80;72.70;;;;;;4945113;29;20090;-68
2021/04/25 04:37:05;;;;;;;7.60;2.10;;;4.80;73.00;;;;;;4943378;29;20509;-68
2021/04/25 04:39:31;;;;;;;8.68;1.73;;;4.80;72.60;;;;;;4943809;29;20031;-68
2021/04/25 04:41:57;;;;;;;6.28;2.03;;;4.80;72.80;;;;;;4945551;28;20051;-68
2021/04/25 04:44:23;;;;;;;7.57;1.80;;;4.80;72.60;;;;;;4947389;28;20032;-68
2021/04/25 04:46:49;;;;;;;7.40;2.20;;;4.80;72.40;;;;;;4946709;28;20504;-68
2021/04/25 04:49:14;;;;;;;7.90;2.15;;;4.90;72.60;;;;;;4945524;28;20359;-68
2021/04/25 04:51:41;;;;;;;6.40;1.73;;;4.80;72.90;;;;;;4945691;28;20043;-68
2021/04/25 04:54:07;;;;;;;6.20;2.03;;;4.80;72.90;;;;;;4950912;28;20540;-68
2021/04/25 04:56:33;;;;;;;10.30;2.10;;;4.80;73.00;;;;;;4945012;29;20585;-69
2021/04/25 04:58:59;;;;;;;4.15;1.50;;;4.80;72.80;;;;;;4947040;29;20035;-68
2021/04/25 05:01:24;;;;;;;4.95;2.25;;;4.80;72.80;;;;;;4944060;28;20699;-68
2021/04/25 05:03:50;;;;;;;7.95;1.55;;;4.80;72.60;;;;;;4947390;28;20489;-68
2021/04/25 05:06:16;;;;;;;4.85;1.70;;;4.90;72.80;;;;;;4945523;29;20054;-68
2021/04/25 05:08:41;;;;;;;5.82;2.00;;;4.80;73.00;;;;;;4949378;29;20023;-68
2021/04/25 05:11:07;;;;;;;7.88;1.95;;;4.80;73.40;;;;;;4944096;29;20090;-68
2021/04/25 05:13:33;;;;;;;8.40;1.95;;;4.80;73.50;;;;;;4947327;29;20027;-68
2021/04/25 05:15:59;;;;;;;7.40;2.05;;;4.70;73.60;;;;;;4944975;29;20042;-68
2021/04/25 05:18:24;;;;;;;6.78;1.90;;;4.70;73.70;;;;;;4946186;28;20031;-68
2021/04/25 05:20:50;;;;;;;6.28;1.92;;;4.70;74.00;;;;;;4944196;29;20054;-68
2021/04/25 05:23:16;;;;;;;7.20;1.90;;;4.70;74.10;;;;;;4946078;29;20034;-69
2021/04/25 05:25:44;;;;;;;5.57;1.83;;;4.70;74.30;;;;;;4947025;29;20054;-68
2021/04/25 05:28:10;;;;;;;5.90;1.83;;;4.70;74.30;;;;;;4941292;29;20636;-68
2021/04/25 05:30:36;;;;;;;5.50;2.10;;;4.70;74.20;;;;;;4944233;29;20078;-68
2021/04/25 05:33:01;;;;;;;8.85;1.83;;;4.80;74.20;;;;;;4946175;28;20079;-68
2021/04/25 05:35:27;;;;;;;11.48;2.58;;;4.80;74.10;;;;;;4944827;28;20034;-68
2021/04/25 05:37:53;;;;;;;9.95;2.10;;;4.90;74.00;;;;;;4946635;29;20028;-68
2021/04/25 05:40:18;;;;;;;6.97;2.20;;;4.90;73.70;;;;;;4945572;29;20366;-69
2021/04/25 05:42:44;;;;;;;9.85;2.03;;;4.90;73.50;;;;;;4944972;29;20063;-68
2021/04/25 05:45:20;;;;;;;7.75;2.47;;;5.00;73.80;;;;;;4945614;28;20044;-67
2021/04/25 05:47:48;;;;;;;7.82;2.10;;;4.90;73.80;;;;;;4945956;29;20143;-68
2021/04/25 05:50:14;;;;;;;10.30;3.00;;;4.90;74.20;;;;;;4947127;28;20254;-68
2021/04/25 05:52:39;;;;;;;7.03;1.92;;;5.00;74.30;;;;;;4944860;29;20079;-68
2021/04/25 05:55:06;;;;;;;4.85;1.90;;;5.00;74.40;;;;;;4945481;29;20047;-68
2021/04/25 05:57:31;;;;;;;6.53;2.15;;;5.00;74.00;;;;;;4943304;28;20039;-68
2021/04/25 05:59:57;;;;;;;6.70;2.08;;;5.00;73.90;;;;;;4945130;29;20285;-68
2021/04/25 06:02:23;;;;;;;11.60;2.25;;;5.10;73.90;;;;;;4942488;28;20067;-68
2021/04/25 06:04:48;;;;;;;6.80;2.00;;;5.10;74.10;;;;;;4943616;28;20095;-68
2021/04/25 06:07:14;;;;;;;5.57;1.90;;;5.00;74.10;;;;;;4944988;28;20024;-68
2021/04/25 06:09:40;;;;;;;7.80;1.90;;;5.00;74.00;;;;;;4948330;28;20070;-68
2021/04/25 06:12:06;;;;;;;7.05;2.10;;;5.00;74.00;;;;;;4940679;28;20106;-68
2021/04/25 06:14:31;;;;;;;5.47;1.92;;;5.00;73.90;;;;;;4945428;29;20042;-68
2021/04/25 06:16:57;;;;;;;4.60;1.77;;;5.10;73.90;;;;;;4944633;29;20035;-68
2021/04/25 06:19:23;;;;;;;7.22;2.20;;;5.10;73.70;;;;;;4945083;29;20051;-68
2021/04/25 06:21:49;;;;;;;6.25;2.05;;;5.20;73.50;;;;;;4944069;28;20035;-69
2021/04/25 06:24:14;;;;;;;4.60;1.85;;;5.30;73.00;;;;;;4945763;28;20038;-69
2021/04/25 06:26:40;;;;;;;7.82;2.17;;;5.30;72.80;;;;;;4944816;28;20031;-68
2021/04/25 06:29:06;;;;;;;10.50;2.25;;;5.40;72.80;;;;;;4942510;29;20071;-68
2021/04/25 06:31:34;;;;;;;4.70;1.95;;;5.40;72.70;;;;;;4943487;28;20035;-68
2021/04/25 06:34:01;;;;;;;4.25;1.83;;;5.50;72.50;;;;;;4944044;29;20035;-68
2021/04/25 06:36:27;;;;;;;5.07;1.92;;;5.50;72.40;;;;;;4945087;28;20074;-69
2021/04/25 06:38:52;;;;;;;5.22;2.22;;;5.60;72.40;;;;;;4944443;28;20502;-69
2021/04/25 06:41:19;;;;;;;6.40;1.70;;;5.60;71.90;;;;;;4943048;29;20044;-69
2021/04/25 06:43:45;;;;;;;5.05;1.92;;;5.60;71.40;;;;;;4944974;28;20074;-69
2021/04/25 06:46:11;;;;;;;6.65;2.25;;;5.60;71.20;;;;;;4944598;29;20031;-70
2021/04/25 06:48:37;;;;;;;12.35;2.33;;;5.70;71.40;;;;;;4944334;28;20032;-69
2021/04/25 06:51:02;;;;;;;6.20;2.08;;;5.70;71.20;;;;;;4946738;29;20039;-68
2021/04/25 06:53:28;;;;;;;5.20;1.83;;;5.80;71.40;;;;;;4953300;28;20523;-70
2021/04/25 06:55:54;;;;;;;4.97;1.65;;;5.80;70.40;;;;;;4955831;28;20090;-71
2021/04/25 06:58:19;;;;;;;7.30;1.90;;;5.80;70.40;;;;;;4949028;29;20035;-67
2021/04/25 07:00:45;;;;;;;5.57;1.58;;;5.90;69.40;;;;;;4943212;28;20036;-68
2021/04/25 07:03:11;;;;;;;4.25;1.73;;;6.00;68.80;;;;;;4945599;29;20032;-68
2021/04/25 07:05:38;;;;;;;6.13;1.63;;;6.00;69.00;;;;;;4946288;28;20037;-68
2021/04/25 07:08:04;;;;;;;6.25;1.50;;;6.10;68.10;;;;;;4948038;29;20091;-68
2021/04/25 07:10:30;;;;;;;2.65;1.52;;;6.50;67.00;;;;;;4949752;28;20493;-69
2021/04/25 07:12:56;;;;;;;5.30;2.00;;;6.60;65.90;;;;;;4944082;29;20075;-68
2021/04/25 07:15:22;;;;;;;4.93;1.80;;;6.50;65.40;;;;;;4943891;28;20051;-68
2021/04/25 07:17:48;;;;;;;4.97;1.65;;;6.50;65.40;;;;;;4945132;29;20031;-67
2021/04/25 07:20:14;;;;;;;4.20;1.60;;;6.50;65.60;;;;;;4945983;28;20028;-69
2021/04/25 07:22:40;;;;;;;2.03;1.23;;;6.50;65.80;;;;;;4944944;29;20441;-69
2021/04/25 07:25:08;;;;;;;6.30;1.80;;;6.60;66.10;;;;;;4945503;28;20079;-70
2021/04/25 07:27:34;;;;;;;4.15;1.20;;;6.70;65.70;;;;;;4945905;29;20119;-68
2021/04/25 07:30:00;;;;;;;2.50;0.90;;;6.70;63.60;;;;;;4946841;28;20106;-68
2021/04/25 07:32:25;;;;;;;2.75;1.00;;;6.70;62.80;;;;;;4951229;28;20039;-68
2021/04/25 07:34:51;;;;;;;2.35;1.00;;;6.80;62.50;;;;;;4951351;28;20035;-68
2021/04/25 07:37:17;;;;;;;3.17;1.13;;;6.80;61.70;;;;;;4947937;28;20050;-69
2021/04/25 07:39:43;;;;;;;3.20;1.10;;;6.90;62.30;;;;;;4945754;29;20043;-68
2021/04/25 07:42:11;;;;;;;6.18;2.25;;;6.90;62.50;;;;;;4946220;28;20445;-69
2021/04/25 07:44:40;;;;;;;4.10;1.40;;;7.00;62.20;;;;;;4952166;29;20027;-67
2021/04/25 07:47:06;;;;;;;3.08;1.08;;;7.00;62.30;;;;;;4951443;28;20157;-69
2021/04/25 07:49:35;;;;;;;2.33;0.98;;;7.10;61.30;;;;;;4946239;29;20032;-68
2021/04/25 07:52:02;;;;;;;1.77;0.70;;;7.10;60.90;;;;;;4952474;29;20068;-69
2021/04/25 07:54:28;;;;;;;1.95;0.90;;;7.20;60.00;;;;;;4949056;29;20181;-67
2021/04/25 07:56:55;;;;;;;2.20;0.77;;;7.30;59.40;;;;;;4946840;28;20043;-67
2021/04/25 07:59:21;;;;;;;1.60;0.80;;;7.30;59.30;;;;;;4945603;29;20063;-69
2021/04/25 08:01:47;;;;;;;4.28;1.10;;;7.40;59.60;;;;;;4942972;28;20043;-68
2021/04/25 08:04:13;;;;;;;2.85;1.10;;;7.40;60.00;;;;;;4943576;29;20023;-67
2021/04/25 08:06:38;;;;;;;3.40;0.70;;;7.50;60.10;;;;;;4952155;28;20060;-69
2021/04/25 08:09:04;;;;;;;1.98;0.50;;;7.50;59.10;;;;;;4948647;29;20118;-69
2021/04/25 08:11:30;;;;;;;3.17;0.80;;;7.60;58.60;;;;;;4946173;28;20066;-70
2021/04/25 08:13:56;;;;;;;2.95;0.68;;;7.80;57.30;;;;;;4950234;28;20043;-70
2021/04/25 08:16:21;;;;;;;3.00;0.50;;;7.80;56.20;;;;;;4945237;29;20038;-72
2021/04/25 08:18:47;;;;;;;3.60;0.63;;;7.90;55.60;;;;;;4951843;29;20158;-69
2021/04/25 08:21:12;;;;;;;4.43;1.00;;;7.90;55.80;;;;;;4944746;29;20046;-71
2021/04/25 08:23:38;;;;;;;5.70;0.70;;;8.10;54.60;;;;;;4947227;28;20028;-68
2021/04/25 08:26:04;;;;;;;4.68;0.80;;;8.10;53.80;;;;;;4946319;29;20027;-68
2021/04/25 08:28:30;;;;;;;1.30;0.68;;;8.20;53.50;;;;;;4949331;29;20027;-69
2021/04/25 08:30:56;;;;;;;5.70;0.82;;;8.20;54.10;;;;;;4957870;28;20675;-69
2021/04/25 08:33:22;;;;;;;2.45;0.73;;;8.20;52.80;;;;;;4944928;29;20066;-68
2021/04/25 08:35:50;;;;;;;1.58;0.75;;;8.20;51.90;;;;;;4950038;28;20039;-69
2021/04/25 08:38:16;;;;;;;2.10;0.88;;;8.30;53.10;;;;;;4951203;28;20026;-68
2021/04/25 08:40:42;;;;;;;1.35;0.63;;;8.30;52.50;;;;;;4944360;28;20061;-68
2021/04/25 08:43:11;;;;;;;1.35;0.70;;;8.30;52.40;;;;;;4942057;29;20492;-70
2021/04/25 08:45:39;;;;;;;2.65;0.50;;;8.30;50.50;;;;;;4943847;28;20044;-68
2021/04/25 08:48:06;;;;;;;1.17;0.60;;;8.40;48.70;;;;;;4949072;29;20027;-68
2021/04/25 08:50:32;;;;;;;5.15;0.63;;;8.40;48.30;;;;;;4949587;29;20541;-69
2021/04/25 08:52:59;;;;;;;2.40;0.65;;;8.40;49.30;;;;;;4940912;29;20513;-68
2021/04/25 08:55:25;;;;;;;1.77;0.60;;;8.40;48.10;;;;;;4941065;29;20028;-67
2021/04/25 08:57:51;;;;;;;2.55;0.80;;;8.30;46.80;;;;;;4950956;29;20031;-68
2021/04/25 09:00:19;;;;;;;1.65;0.70;;;8.30;47.00;;;;;;4947142;29;20035;-68
2021/04/25 09:02:45;;;;;;;1.10;0.60;;;8.30;46.70;;;;;;4945691;28;20046;-68
2021/04/25 09:05:12;;;;;;;2.22;1.10;;;8.20;46.40;;;;;;4949773;29;20031;-67
2021/04/25 09:07:55;;;;;;;0.70;0.40;;;8.20;45.50;;;;;;4947981;28;20524;-69
2021/04/25 09:10:30;;;;;;;0.95;0.45;;;8.20;45.40;;;;;;4952847;29;20078;-68
2021/04/25 09:12:56;;;;;;;2.10;1.00;;;8.30;45.30;;;;;;4948667;29;20155;-68
2021/04/25 09:15:22;;;;;;;1.98;1.05;;;8.40;45.30;;;;;;4954242;28;20110;-69
2021/04/25 09:17:56;;;;;;;2.20;0.80;;;8.40;46.10;;;;;;4952850;28;20035;-70
2021/04/25 09:20:32;;;;;;;2.58;0.77;;;8.50;46.20;;;;;;4946846;28;20031;-73
2021/04/25 09:22:58;;;;;;;3.38;0.70;;;8.60;46.00;;;;;;4946404;29;20031;-73
2021/04/25 09:25:24;;;;;;;1.70;0.40;;;8.70;44.40;;;;;;4949681;28;20173;-69
2021/04/25 09:27:51;;;;;;;1.67;0.57;;;8.60;43.80;;;;;;4948637;28;20031;-69
2021/04/25 09:30:21;;;;;;;1.60;0.77;;;8.60;44.90;;;;;;4950167;28;20054;-67
2021/04/25 09:32:47;;;;;;;1.83;0.57;;;8.70;44.40;;;;;;4943753;29;20118;-67
2021/04/25 09:35:19;;;;;;;1.35;0.60;;;8.70;40.80;;;;;;4947544;29;20169;-67
2021/04/25 09:37:49;;;;;;;1.25;0.55;;;8.80;40.80;;;;;;4952658;29;20054;-68
2021/04/25 09:40:19;;;;;;;2.00;0.60;;;8.80;40.10;;;;;;4955748;29;20527;-68
2021/04/25 09:43:05;;;;;;;3.92;0.73;;;8.80;40.50;;;;;;4949022;29;20050;-68
2021/04/25 09:45:39;;;;;;;1.20;0.60;;;9.00;42.10;;;;;;4951279;29;20110;-69
2021/04/25 09:48:33;;;;;;;0.82;0.60;;;9.20;43.50;;;;;;4952081;29;20090;-67
2021/04/25 09:51:21;;;;;;;1.58;0.60;;;9.30;42.60;;;;;;4947982;29;20054;-69
2021/04/25 09:53:50;;;;;;;2.90;0.93;;;9.50;41.90;;;;;;4946333;29;20043;-68
2021/04/25 09:56:18;;;;;;;0.75;0.40;;;9.60;41.80;;;;;;4949413;29;20031;-71
2021/04/25 09:58:58;;;;;;;1.90;0.60;;;9.70;40.60;;;;;;4951734;29;20041;-69
2021/04/25 10:01:35;;;;;;;2.20;1.00;;;9.70;40.70;;;;;;4959933;28;20038;-69
2021/04/25 10:04:03;;;;;;;1.35;0.70;;;9.70;41.50;;;;;;4948962;29;20492;-69
2021/04/25 10:06:48;;;;;;;2.40;0.98;;;9.80;40.10;;;;;;4948626;28;20132;-69
2021/04/25 10:09:19;;;;;;;1.08;0.57;;;9.60;39.90;;;;;;4947870;28;20046;-71
2021/04/25 10:11:46;;;;;;;3.33;0.80;;;9.60;39.60;;;;;;4948814;28;20397;-70
2021/04/25 10:14:14;;;;;;;0.95;0.60;;;9.50;39.00;;;;;;4951575;28;20382;-71
2021/04/25 10:16:41;;;;;;;2.58;0.68;;;9.40;37.60;;;;;;4952850;29;20035;-70
2021/04/25 10:19:11;;;;;;;1.20;0.60;;;9.30;37.60;;;;;;4949201;28;20031;-71
2021/04/25 10:21:38;;;;;;;1.83;0.43;;;9.30;38.20;;;;;;4944859;28;20070;-70
2021/04/25 10:24:08;;;;;;;1.02;0.45;;;9.30;38.60;;;;;;4960399;28;20074;-70
2021/04/25 10:26:48;;;;;;;2.67;0.60;;;9.40;38.90;;;;;;4949546;28;20422;-70
2021/04/25 10:29:17;;;;;;;2.25;1.00;;;9.50;37.20;;;;;;4949809;28;20712;-70
2021/04/25 10:31:44;;;;;;;1.80;0.60;;;9.60;37.10;;;;;;4942816;28;20035;-70
2021/04/25 10:34:20;;;;;;;3.20;0.60;;;9.70;37.10;;;;;;4940362;28;20054;-70
2021/04/25 10:36:47;;;;;;;1.60;0.68;;;9.60;37.70;;;;;;4948061;28;20102;-70
2021/04/25 10:39:40;;;;;;;1.92;0.68;;;9.60;38.10;;;;;;4950909;29;20054;-70
2021/04/25 10:42:25;;;;;;;0.98;0.50;;;9.60;39.40;;;;;;4962068;28;20024;-71
2021/04/25 10:47:23;;;;;;;0.90;0.50;;;9.70;37.40;;;;;;4951154;28;20636;-69
2021/04/25 10:49:49;;;;;;;0.90;0.50;;;9.80;37.60;;;;;;4951552;28;20401;-71
2021/04/25 10:52:32;;;;;;;3.08;0.70;;;9.90;37.60;;;;;;4941226;29;20126;-71
2021/04/25 10:55:14;;;;;;;1.38;0.50;;;10.00;36.20;;;;;;4942526;29;20035;-72
2021/04/25 11:00:32;;;;;;;0.50;0.40;;;10.20;37.30;;;;;;4944107;28;20042;-70
2021/04/25 11:03:09;;;;;;;1.05;0.55;;;10.40;35.40;;;;;;4940924;28;20043;-69
2021/04/25 11:05:38;;;;;;;3.30;0.70;;;10.50;35.20;;;;;;4945227;28;20151;-69
2021/04/25 11:08:05;;;;;;;0.60;0.40;;;10.40;34.80;;;;;;4947792;28;20035;-68
2021/04/25 11:10:51;;;;;;;3.17;0.75;;;10.50;35.30;;;;;;4946719;28;20023;-69
2021/04/25 11:13:40;;;;;;;1.67;0.60;;;11.00;37.80;;;;;;4949139;28;20058;-69
2021/04/25 11:16:23;;;;;;;2.45;0.93;;;12.00;35.20;;;;;;4946362;29;20449;-69
2021/04/25 11:19:06;;;;;;;1.67;0.50;;;13.10;31.80;;;;;;4947979;29;20024;-71
2021/04/25 11:21:39;;;;;;;2.15;0.55;;;15.00;33.60;;;;;;4949899;29;20035;-70
2021/04/25 11:24:05;;;;;;;0.77;0.52;;;16.50;29.40;;;;;;4949979;28;20392;-70
2021/04/25 11:26:41;;;;;;;1.90;0.70;;;17.70;28.90;;;;;;4944875;29;20027;-71
2021/04/25 11:29:24;;;;;;;1.08;0.40;;;18.80;26.90;;;;;;4950032;28;20027;-68
2021/04/25 11:31:58;;;;;;;1.02;0.63;;;18.60;26.70;;;;;;4958584;28;20466;-69
2021/04/25 11:34:33;;;;;;;1.92;0.80;;;18.40;27.90;;;;;;4948503;29;20035;-68
2021/04/25 11:37:05;;;;;;;1.92;0.70;;;18.90;27.40;;;;;;4946079;28;20373;-68
2021/04/25 11:39:43;;;;;;;1.13;0.50;;;19.40;26.30;;;;;;4964889;28;20019;-69
2021/04/25 11:42:37;;;;;;;0.93;0.40;;;19.90;25.80;;;;;;4943610;29;20031;-69
2021/04/25 11:45:09;;;;;;;0.73;0.40;;;20.00;25.40;;;;;;4943688;29;20502;-69
2021/04/25 11:47:35;;;;;;;3.08;1.05;;;20.00;25.30;;;;;;4945527;29;20412;-69
2021/04/25 11:50:04;;;;;;;0.40;0.40;;;19.70;22.20;;;;;;4945788;28;20038;-69
2021/04/25 11:52:36;;;;;;;1.42;0.52;;;18.90;24.10;;;;;;4946165;28;20504;-69
2021/04/25 11:55:11;;;;;;;2.80;0.50;;;17.90;25.90;;;;;;4948997;29;20036;-69
2021/04/25 11:57:39;;;;;;;1.27;0.40;;;17.50;25.50;;;;;;4945730;29;20031;-69
2021/04/25 12:00:10;;;;;;;0.55;0.40;;;17.30;24.70;;;;;;4951375;28;20486;-69
2021/04/25 12:02:37;;;;;;;;;;;16.90;25.60;;;;;;4950827;28;20034;-68
2021/04/25 12:05:07;;;;;;;1.75;0.45;;;16.70;25.80;;;;;;4945746;29;19911;-68
2021/04/25 12:07:39;;;;;;;1.05;0.40;;;16.50;25.80;;;;;;4947742;29;20068;-69
2021/04/25 12:10:30;;;;;;;1.15;0.50;;;16.20;25.50;;;;;;4947573;28;20564;-69
2021/04/25 12:13:12;;;;;;;1.00;0.50;;;15.60;26.90;;;;;;4947235;29;20040;-69
2021/04/25 12:15:43;;;;;;;1.27;0.60;;;15.50;27.20;;;;;;4946596;29;20024;-68
2021/04/25 12:18:09;;;;;;;1.58;0.50;;;15.50;25.90;;;;;;4943795;28;20081;-70
2021/04/25 12:20:44;;;;;;;1.48;0.40;;;15.60;26.50;;;;;;4946919;28;20020;-70
2021/04/25 12:23:51;;;;;;;1.15;0.47;;;15.90;26.90;;;;;;4943637;28;20028;-69
2021/04/25 12:26:18;;;;;;;0.82;0.45;;;16.30;26.20;;;;;;4946177;28;20516;-69
2021/04/25 12:28:47;;;;;;;0.50;0.50;;;16.60;27.30;;;;;;4942480;28;20055;-69
2021/04/25 12:31:14;;;;;;;0.60;0.50;;;17.10;25.40;;;;;;4942974;28;20036;-69
2021/04/25 12:33:46;;;;;;;0.55;0.50;;;17.30;24.10;;;;;;4945303;28;20032;-73
2021/04/25 12:36:14;;;;;;;1.85;0.40;;;17.40;25.50;;;;;;4949935;28;20028;-69
2021/04/25 12:38:42;;;;;;;2.17;0.40;;;17.60;24.20;;;;;;4945432;28;20031;-73
2021/04/25 12:41:13;;;;;;;1.02;0.50;;;17.60;23.60;;;;;;4941785;28;20035;-71
2021/04/25 12:43:48;;;;;;;1.80;0.40;;;17.70;23.40;;;;;;4945063;28;20035;-72
2021/04/25 12:46:24;;;;;;;1.05;0.50;;;18.00;23.70;;;;;;4951659;29;20062;-76
2021/04/25 12:48:59;;;;;;;1.10;0.52;;;18.20;22.80;;;;;;4952761;29;20114;-73
2021/04/25 12:51:31;;;;;;;0.60;0.40;;;18.40;21.90;;;;;;4947990;29;20119;-69
2021/04/25 12:53:57;;;;;;;1.65;0.35;;;18.50;22.70;;;;;;4952629;28;20031;-70
2021/04/25 12:56:41;;;;;;;1.80;0.50;;;18.70;23.90;;;;;;4946523;29;20042;-72
2021/04/25 12:59:16;;;;;;;2.95;0.60;;;19.20;22.40;;;;;;4945107;29;20042;-70
2021/04/25 13:01:48;;;;;;;1.05;0.45;;;19.30;22.60;;;;;;4943456;28;20031;-70
2021/04/25 13:04:25;;;;;;;1.05;0.40;;;19.20;22.60;;;;;;4946605;29;20064;-70
2021/04/25 13:06:51;;;;;;;1.77;0.55;;;19.50;23.50;;;;;;4943957;29;20036;-69